Lady Mary — WCY4834 — position and weather

sailwx.info

Track history (hours):
 
Tides and Currents Weather Stations Pressure Air Temp Water Temp Dewpoint Dewpoint Depression Visibility Wind Speed Wind Dir Waves Ship Positions

Lady Mary

Owner: BLACKMAN, JOHN H, SEATTLE, WA. More information available from US FCC via Universal Licensing System and Coast Guard Vessel Documentation Center.

Last reported at 2016-Jun-25 11:31 UTC. Time now 2016-Jun-25 12:25 UTC.
Position N 47°40' W 122°13'.

Length 26 m.

Type: Passenger vessel. MMSI: 367013060.

Date/timePositionNaut miles runAvg speedWind from/ knotsBaromVisibWave heightAir tempDewpointWater temp
2016-Jun-25 11:31N 47°40' W 122°13'0 0.0
2016-Jun-25 10:32N 47°40' W 122°13'0 0.0
2016-Jun-25 09:30N 47°40' W 122°13'0 0.0
2016-Jun-25 08:33N 47°40' W 122°13'0 0.0
2016-Jun-25 07:25N 47°40' W 122°13'0 0.0
2016-Jun-25 06:29N 47°40' W 122°13'0 0.0
2016-Jun-25 05:29N 47°40' W 122°13'0 0.0
2016-Jun-25 04:33N 47°40' W 122°13'0 0.0
2016-Jun-25 03:31N 47°40' W 122°13'0 0.0
2016-Jun-25 02:31N 47°40' W 122°13'0 0.0
2016-Jun-25 01:32N 47°40' W 122°13'0 0.0
2016-Jun-25 00:33N 47°40' W 122°13'0 0.0
2016-Jun-24 23:33N 47°40' W 122°13'0 0.0
2016-Jun-24 22:31N 47°40' W 122°13'0 0.0
2016-Jun-24 21:32N 47°40' W 122°13'0 0.0
2016-Jun-24 20:32N 47°40' W 122°13'4 3.6
2016-Jun-24 19:33N 47°37' W 122°15'4 3.5
2016-Jun-24 18:33N 47°40' W 122°13'0 0.0
2016-Jun-24 17:30N 47°40' W 122°13'0 0.0
2016-Jun-24 16:31N 47°40' W 122°13'0 0.0
2016-Jun-24 15:32N 47°40' W 122°13'0 0.0
2016-Jun-24 14:32N 47°40' W 122°13'0 0.0
2016-Jun-24 13:33N 47°40' W 122°13'0 0.0
2016-Jun-24 12:31N 47°40' W 122°13'0 0.0
2016-Jun-24 11:31N 47°40' W 122°13'0 0.0
2016-Jun-24 10:32N 47°40' W 122°13'0 0.0
2016-Jun-24 09:30N 47°40' W 122°13'0 0.0
2016-Jun-24 08:33N 47°40' W 122°13'0 0.0
2016-Jun-24 07:31N 47°40' W 122°13'5 1.6
2016-Jun-24 04:33N 47°39' W 122°19'2 1.6
2016-Jun-24 03:21N 47°39' W 122°16'2 2.3
2016-Jun-24 02:25N 47°39' W 122°20'1 1.6
2016-Jun-24 01:30N 47°38' W 122°20'0 0.0
2016-Jun-24 00:31N 47°38' W 122°20'0 0.0
2016-Jun-23 23:32N 47°38' W 122°20'1 0.6
2016-Jun-23 22:33N 47°38' W 122°20'0 0.5
2016-Jun-23 21:32N 47°39' W 122°21'1 0.9
2016-Jun-23 20:27N 47°38' W 122°20'1 1.4
2016-Jun-23 19:33N 47°39' W 122°20'3 2.5
2016-Jun-23 18:33N 47°39' W 122°16'1 0.6
2016-Jun-23 17:33N 47°39' W 122°17'3 2.6
2016-Jun-23 16:31N 47°38' W 122°20'2 2.2
2016-Jun-23 15:32N 47°39' W 122°18'4 3.7
2016-Jun-23 14:30N 47°40' W 122°13'0 0.0
2016-Jun-23 13:31N 47°40' W 122°13'0 0.0
2016-Jun-23 12:32N 47°40' W 122°13'0 0.0
2016-Jun-23 11:32N 47°40' W 122°13'0 0.0
2016-Jun-23 10:33N 47°40' W 122°13'0 0.0
2016-Jun-23 09:31N 47°40' W 122°13'0 0.0
2016-Jun-23 08:31N 47°40' W 122°13'0 0.0
2016-Jun-23 07:32N 47°40' W 122°13'0 0.0
2016-Jun-23 05:28N 47°40' W 122°13'0 0.0
2016-Jun-23 04:28N 47°40' W 122°13'0 0.0
2016-Jun-23 03:32N 47°40' W 122°13'0 0.0
2016-Jun-23 02:18N 47°40' W 122°13'0 0.0
2016-Jun-23 01:30N 47°40' W 122°13'0 0.0
2016-Jun-23 00:31N 47°40' W 122°13'0 0.0
2016-Jun-22 23:32N 47°40' W 122°13'0 0.0
2016-Jun-22 22:32N 47°40' W 122°13'0 0.0
2016-Jun-22 21:33N 47°40' W 122°13'0 0.0
2016-Jun-22 20:31N 47°40' W 122°13'0 0.0
2016-Jun-22 19:22N 47°40' W 122°13'0 0.0
2016-Jun-22 18:20N 47°40' W 122°13'0 0.0
2016-Jun-22 17:30N 47°40' W 122°13'0 0.0
2016-Jun-22 16:33N 47°40' W 122°13'0 0.0
2016-Jun-22 15:31N 47°40' W 122°13'0 0.0
2016-Jun-22 14:32N 47°40' W 122°13'0 0.0
2016-Jun-22 13:32N 47°40' W 122°13'0 0.0
2016-Jun-22 12:33N 47°40' W 122°13'0 0.0
2016-Jun-22 11:22N 47°40' W 122°13'0 0.0
2016-Jun-22 10:22N 47°40' W 122°13'0 0.0
2016-Jun-22 09:32N 47°40' W 122°13'0 0.0
2016-Jun-22 08:33N 47°40' W 122°13'0 0.0
2016-Jun-22 07:33N 47°40' W 122°13'0 0.0
2016-Jun-22 06:31N 47°40' W 122°13'0 0.0
2016-Jun-22 05:32N 47°40' W 122°13'0 0.0
2016-Jun-22 04:29N 47°40' W 122°13'0 0.0
2016-Jun-22 03:33N 47°40' W 122°13'0 0.0
2016-Jun-22 02:28N 47°40' W 122°13'0 0.0
2016-Jun-22 01:28N 47°40' W 122°13'0 0.1
2016-Jun-22 00:33N 47°40' W 122°13'3 3.2
2016-Jun-21 23:33N 47°38' W 122°16'3 3.2
2016-Jun-21 22:31N 47°40' W 122°13'0 0.0
2016-Jun-21 21:32N 47°40' W 122°13'0 0.0
2016-Jun-21 20:33N 47°40' W 122°13'0 0.0
2016-Jun-21 19:33N 47°40' W 122°13'0 0.0
2016-Jun-21 18:28N 47°40' W 122°13'0 0.0
2016-Jun-21 17:32N 47°40' W 122°13'0 0.0
2016-Jun-21 16:29N 47°40' W 122°13'0 0.0
2016-Jun-21 15:33N 47°40' W 122°13'0 0.0
2016-Jun-21 14:31N 47°40' W 122°13'0 0.0
2016-Jun-21 13:31N 47°40' W 122°13'0 0.0
2016-Jun-21 12:32N 47°40' W 122°13'0 0.0
2016-Jun-21 11:24N 47°40' W 122°13'0 0.0
2016-Jun-21 10:33N 47°40' W 122°13'0 0.0
2016-Jun-21 09:31N 47°40' W 122°13'0 0.0
2016-Jun-21 08:32N 47°40' W 122°13'0 0.0
2016-Jun-21 07:32N 47°40' W 122°13'0 0.0
2016-Jun-21 04:26N 47°40' W 122°13'0 0.0
2016-Jun-21 03:32N 47°40' W 122°13'0 0.0
2016-Jun-21 02:24N 47°40' W 122°13'0 0.0
2016-Jun-21 01:33N 47°40' W 122°13'0 0.0
2016-Jun-21 00:31N 47°40' W 122°13'0 0.0
2016-Jun-20 23:32N 47°40' W 122°13'0 0.0
2016-Jun-20 22:27N 47°40' W 122°13'0 0.0
2016-Jun-20 21:33N 47°40' W 122°13'0 0.0
2016-Jun-20 20:31N 47°40' W 122°13'4 4.1
2016-Jun-20 19:34N 47°37' W 122°15'4 3.7
2016-Jun-20 18:29N 47°40' W 122°13'0 0.0
2016-Jun-20 17:33N 47°40' W 122°13'0 0.0
2016-Jun-20 16:33N 47°40' W 122°13'0 0.0
2016-Jun-20 15:31N 47°40' W 122°13'0 0.0
2016-Jun-20 14:29N 47°40' W 122°13'0 0.0
2016-Jun-20 13:29N 47°40' W 122°13'0 0.0
2016-Jun-20 12:33N 47°40' W 122°13'0 0.0
2016-Jun-20 11:31N 47°40' W 122°13'0 0.0
2016-Jun-20 10:31N 47°40' W 122°13'0 0.0
2016-Jun-20 09:32N 47°40' W 122°13'0 0.0
2016-Jun-20 08:33N 47°40' W 122°13'0 0.0
2016-Jun-20 07:33N 47°40' W 122°13'0 0.0
2016-Jun-20 06:31N 47°40' W 122°13'0 0.0
2016-Jun-20 05:32N 47°40' W 122°13'0 0.0
2016-Jun-20 04:29N 47°40' W 122°13'0 0.0
2016-Jun-20 03:33N 47°40' W 122°13'0 0.0
2016-Jun-20 02:25N 47°40' W 122°13'0 0.0
2016-Jun-20 01:31N 47°40' W 122°13'0 0.0
2016-Jun-20 00:32N 47°40' W 122°13'0 0.0
2016-Jun-19 23:27N 47°40' W 122°13'0 0.0
2016-Jun-19 22:33N 47°40' W 122°13'3 3.4
2016-Jun-19 21:33N 47°37' W 122°15'3 3.2
2016-Jun-19 20:31N 47°40' W 122°13'3 3.5
2016-Jun-19 19:33N 47°37' W 122°15'3 3.3
2016-Jun-19 18:32N 47°40' W 122°13'0 0.0
2016-Jun-19 17:33N 47°40' W 122°13'0 0.0
2016-Jun-19 16:33N 47°40' W 122°13'0 0.0
2016-Jun-19 15:31N 47°40' W 122°13'0 0.0
2016-Jun-19 14:32N 47°40' W 122°13'0 0.0
2016-Jun-19 13:32N 47°40' W 122°13'0 0.0
2016-Jun-19 12:33N 47°40' W 122°13'0 0.0
2016-Jun-19 11:25N 47°40' W 122°13'0 0.0
2016-Jun-19 10:31N 47°40' W 122°13'0 0.0
2016-Jun-19 09:32N 47°40' W 122°13'0 0.0
2016-Jun-19 08:27N 47°40' W 122°13'0 0.0
2016-Jun-19 07:30N 47°40' W 122°13'0 0.0
2016-Jun-19 06:31N 47°40' W 122°13'0 0.0
2016-Jun-19 05:32N 47°40' W 122°13'0 0.1
2016-Jun-19 04:33N 47°40' W 122°12'0 0.1
2016-Jun-19 03:33N 47°40' W 122°13'2 2.3
2016-Jun-19 02:33N 47°39' W 122°15'4 4.1
2016-Jun-19 01:33N 47°39' W 122°21'5 5.1
2016-Jun-19 00:33N 47°41' W 122°14'1 1.4
2016-Jun-18 23:33N 47°40' W 122°13'0 0.0
2016-Jun-18 22:29N 47°40' W 122°13'0 0.0
2016-Jun-18 16:32N 47°40' W 122°13'0 0.0
2016-Jun-18 15:30N 47°40' W 122°13'0 0.0
2016-Jun-18 14:33N 47°40' W 122°13'0 0.0
2016-Jun-18 13:28N 47°40' W 122°13'0 0.0
2016-Jun-18 12:32N 47°40' W 122°13'0 0.0
2016-Jun-18 11:32N 47°40' W 122°13'0 0.0
2016-Jun-18 10:30N 47°40' W 122°13'0 0.0
2016-Jun-18 09:31N 47°40' W 122°13'0 0.0
2016-Jun-18 08:25N 47°40' W 122°13'0 0.0
2016-Jun-18 07:23N 47°40' W 122°13'0 0.0
2016-Jun-18 06:33N 47°40' W 122°13'0 0.0
2016-Jun-18 05:33N 47°40' W 122°13'0 0.0
2016-Jun-18 04:28N 47°40' W 122°13'0 0.0
2016-Jun-18 03:26N 47°40' W 122°13'0 0.0
2016-Jun-18 02:29N 47°40' W 122°13'0 0.0
2016-Jun-18 01:33N 47°40' W 122°13'0 0.0
2016-Jun-18 00:33N 47°40' W 122°13'4 4.3
2016-Jun-17 23:31N 47°39' W 122°19'1 1.1
2016-Jun-17 22:33N 47°39' W 122°17'3 3.5
2016-Jun-17 21:33N 47°40' W 122°13'0 0.0
2016-Jun-17 20:33N 47°40' W 122°13'3 3.4
2016-Jun-17 19:32N 47°37' W 122°15'3 3.4
2016-Jun-17 18:31N 47°40' W 122°13'0 0.0
2016-Jun-17 17:31N 47°40' W 122°13'0 0.0
2016-Jun-17 16:32N 47°40' W 122°13'0 0.0
2016-Jun-17 15:33N 47°40' W 122°13'0 0.0
2016-Jun-17 14:33N 47°40' W 122°13'0 0.0
2016-Jun-17 13:28N 47°40' W 122°13'0 0.0
2016-Jun-17 12:29N 47°40' W 122°13'0 0.0
2016-Jun-17 11:32N 47°40' W 122°13'0 0.0
2016-Jun-17 10:27N 47°40' W 122°13'0 0.0
2016-Jun-17 09:28N 47°40' W 122°13'0 0.0
2016-Jun-17 08:32N 47°40' W 122°13'0 0.0
2016-Jun-17 07:32N 47°40' W 122°13'0 0.0
2016-Jun-17 06:33N 47°40' W 122°13'5 5.3
2016-Jun-17 05:33N 47°39' W 122°20'1 0.9
2016-Jun-17 04:32N 47°38' W 122°20'3 3.2
2016-Jun-17 03:33N 47°37' W 122°16'2 2.0
2016-Jun-17 02:30N 47°39' W 122°17'2 2.2
2016-Jun-17 01:22N 47°38' W 122°20'0 0.0
2016-Jun-17 00:26N 47°38' W 122°20'0 0.0
2016-Jun-16 23:33N 47°38' W 122°20'5 5.3
2016-Jun-16 22:33N 47°40' W 122°13'1 0.6
2016-Jun-16 21:31N 47°40' W 122°13'0 0.0
2016-Jun-16 20:31N 47°40' W 122°13'0 0.0
2016-Jun-16 19:31N 47°40' W 122°13'0 0.0
2016-Jun-16 18:29N 47°40' W 122°13'0 0.0
2016-Jun-16 17:29N 47°40' W 122°13'0 0.0
2016-Jun-16 16:33N 47°40' W 122°13'0 0.0
2016-Jun-16 15:31N 47°40' W 122°13'0 0.0
2016-Jun-16 14:28N 47°40' W 122°13'0 0.0
2016-Jun-16 13:32N 47°40' W 122°13'0 0.0
2016-Jun-16 12:30N 47°40' W 122°13'0 0.0
2016-Jun-16 11:33N 47°40' W 122°13'0 0.0
2016-Jun-16 10:31N 47°40' W 122°13'0 0.0
2016-Jun-16 09:32N 47°40' W 122°13'0 0.0
2016-Jun-16 08:32N 47°40' W 122°13'0 0.0
2016-Jun-16 07:27N 47°40' W 122°13'0 0.0
2016-Jun-16 06:31N 47°40' W 122°13'0 0.0
2016-Jun-16 05:31N 47°40' W 122°13'0 0.0
2016-Jun-16 04:32N 47°40' W 122°13'0 0.0
2016-Jun-16 03:27N 47°40' W 122°13'0 0.0
2016-Jun-16 02:30N 47°40' W 122°13'0 0.0
2016-Jun-16 01:10N 47°40' W 122°13'0 0.7
2016-Jun-16 00:33N 47°40' W 122°13'0 0.4
2016-Jun-15 23:33N 47°40' W 122°13'2 2.4
2016-Jun-15 22:33N 47°38' W 122°15'2 2.4
2016-Jun-15 21:33N 47°40' W 122°13'0 0.0
2016-Jun-15 20:33N 47°40' W 122°13'1 1.3
2016-Jun-15 19:33N 47°40' W 122°14'4 3.9
2016-Jun-15 18:33N 47°43' W 122°16'4 3.7
2016-Jun-15 17:33N 47°40' W 122°13'0 0.0
2016-Jun-15 16:33N 47°40' W 122°13'0 0.0
2016-Jun-15 15:31N 47°40' W 122°13'0 0.0
2016-Jun-15 14:32N 47°40' W 122°13'0 0.0
2016-Jun-15 13:32N 47°40' W 122°13'0 0.0
2016-Jun-15 12:33N 47°40' W 122°13'  
Track history (hours):
 
Tides and Currents Weather Stations Pressure Air Temp Water Temp Dewpoint Dewpoint Depression Visibility Wind Speed Wind Dir Waves Ship Positions

Lady Mary

Owner: BLACKMAN, JOHN H, SEATTLE, WA. More information available from US FCC via Universal Licensing System and Coast Guard Vessel Documentation Center.

Last reported at 2016-Jun-25 11:31 UTC. Time now 2016-Jun-25 12:25 UTC.
Position N 47°40' W 122°13'.

Length 26 m.

Type: Passenger vessel. MMSI: 367013060.

Date/timePositionNaut miles runAvg speedWind from/ knotsBaromVisibWave heightAir tempDewpointWater temp
2016-Jun-25 11:31N 47°40' W 122°13'0 0.0
2016-Jun-25 10:32N 47°40' W 122°13'0 0.0
2016-Jun-25 09:30N 47°40' W 122°13'0 0.0
2016-Jun-25 08:33N 47°40' W 122°13'0 0.0
2016-Jun-25 07:25N 47°40' W 122°13'0 0.0
2016-Jun-25 06:29N 47°40' W 122°13'0 0.0
2016-Jun-25 05:29N 47°40' W 122°13'0 0.0
2016-Jun-25 04:33N 47°40' W 122°13'0 0.0
2016-Jun-25 03:31N 47°40' W 122°13'0 0.0
2016-Jun-25 02:31N 47°40' W 122°13'0 0.0
2016-Jun-25 01:32N 47°40' W 122°13'0 0.0
2016-Jun-25 00:33N 47°40' W 122°13'0 0.0
2016-Jun-24 23:33N 47°40' W 122°13'0 0.0
2016-Jun-24 22:31N 47°40' W 122°13'0 0.0
2016-Jun-24 21:32N 47°40' W 122°13'0 0.0
2016-Jun-24 20:32N 47°40' W 122°13'4 3.6
2016-Jun-24 19:33N 47°37' W 122°15'4 3.5
2016-Jun-24 18:33N 47°40' W 122°13'0 0.0
2016-Jun-24 17:30N 47°40' W 122°13'0 0.0
2016-Jun-24 16:31N 47°40' W 122°13'0 0.0
2016-Jun-24 15:32N 47°40' W 122°13'0 0.0
2016-Jun-24 14:32N 47°40' W 122°13'0 0.0
2016-Jun-24 13:33N 47°40' W 122°13'0 0.0
2016-Jun-24 12:31N 47°40' W 122°13'0 0.0
2016-Jun-24 11:31N 47°40' W 122°13'0 0.0
2016-Jun-24 10:32N 47°40' W 122°13'0 0.0
2016-Jun-24 09:30N 47°40' W 122°13'0 0.0
2016-Jun-24 08:33N 47°40' W 122°13'0 0.0
2016-Jun-24 07:31N 47°40' W 122°13'5 1.6
2016-Jun-24 04:33N 47°39' W 122°19'2 1.6
2016-Jun-24 03:21N 47°39' W 122°16'2 2.3
2016-Jun-24 02:25N 47°39' W 122°20'1 1.6
2016-Jun-24 01:30N 47°38' W 122°20'0 0.0
2016-Jun-24 00:31N 47°38' W 122°20'0 0.0
2016-Jun-23 23:32N 47°38' W 122°20'1 0.6
2016-Jun-23 22:33N 47°38' W 122°20'0 0.5
2016-Jun-23 21:32N 47°39' W 122°21'1 0.9
2016-Jun-23 20:27N 47°38' W 122°20'1 1.4
2016-Jun-23 19:33N 47°39' W 122°20'3 2.5
2016-Jun-23 18:33N 47°39' W 122°16'1 0.6
2016-Jun-23 17:33N 47°39' W 122°17'3 2.6
2016-Jun-23 16:31N 47°38' W 122°20'2 2.2
2016-Jun-23 15:32N 47°39' W 122°18'4 3.7
2016-Jun-23 14:30N 47°40' W 122°13'0 0.0
2016-Jun-23 13:31N 47°40' W 122°13'0 0.0
2016-Jun-23 12:32N 47°40' W 122°13'0 0.0
2016-Jun-23 11:32N 47°40' W 122°13'0 0.0
2016-Jun-23 10:33N 47°40' W 122°13'0 0.0
2016-Jun-23 09:31N 47°40' W 122°13'0 0.0
2016-Jun-23 08:31N 47°40' W 122°13'0 0.0
2016-Jun-23 07:32N 47°40' W 122°13'0 0.0
2016-Jun-23 05:28N 47°40' W 122°13'0 0.0
2016-Jun-23 04:28N 47°40' W 122°13'0 0.0
2016-Jun-23 03:32N 47°40' W 122°13'0 0.0
2016-Jun-23 02:18N 47°40' W 122°13'0 0.0
2016-Jun-23 01:30N 47°40' W 122°13'0 0.0
2016-Jun-23 00:31N 47°40' W 122°13'0 0.0
2016-Jun-22 23:32N 47°40' W 122°13'0 0.0
2016-Jun-22 22:32N 47°40' W 122°13'0 0.0
2016-Jun-22 21:33N 47°40' W 122°13'0 0.0
2016-Jun-22 20:31N 47°40' W 122°13'0 0.0
2016-Jun-22 19:22N 47°40' W 122°13'0 0.0
2016-Jun-22 18:20N 47°40' W 122°13'0 0.0
2016-Jun-22 17:30N 47°40' W 122°13'0 0.0
2016-Jun-22 16:33N 47°40' W 122°13'0 0.0
2016-Jun-22 15:31N 47°40' W 122°13'0 0.0
2016-Jun-22 14:32N 47°40' W 122°13'0 0.0
2016-Jun-22 13:32N 47°40' W 122°13'0 0.0
2016-Jun-22 12:33N 47°40' W 122°13'0 0.0
2016-Jun-22 11:22N 47°40' W 122°13'0 0.0
2016-Jun-22 10:22N 47°40' W 122°13'0 0.0
2016-Jun-22 09:32N 47°40' W 122°13'0 0.0
2016-Jun-22 08:33N 47°40' W 122°13'0 0.0
2016-Jun-22 07:33N 47°40' W 122°13'0 0.0
2016-Jun-22 06:31N 47°40' W 122°13'0 0.0
2016-Jun-22 05:32N 47°40' W 122°13'0 0.0
2016-Jun-22 04:29N 47°40' W 122°13'0 0.0
2016-Jun-22 03:33N 47°40' W 122°13'0 0.0
2016-Jun-22 02:28N 47°40' W 122°13'0 0.0
2016-Jun-22 01:28N 47°40' W 122°13'0 0.1
2016-Jun-22 00:33N 47°40' W 122°13'3 3.2
2016-Jun-21 23:33N 47°38' W 122°16'3 3.2
2016-Jun-21 22:31N 47°40' W 122°13'0 0.0
2016-Jun-21 21:32N 47°40' W 122°13'0 0.0
2016-Jun-21 20:33N 47°40' W 122°13'0 0.0
2016-Jun-21 19:33N 47°40' W 122°13'0 0.0
2016-Jun-21 18:28N 47°40' W 122°13'0 0.0
2016-Jun-21 17:32N 47°40' W 122°13'0 0.0
2016-Jun-21 16:29N 47°40' W 122°13'0 0.0
2016-Jun-21 15:33N 47°40' W 122°13'0 0.0
2016-Jun-21 14:31N 47°40' W 122°13'0 0.0
2016-Jun-21 13:31N 47°40' W 122°13'0 0.0
2016-Jun-21 12:32N 47°40' W 122°13'0 0.0
2016-Jun-21 11:24N 47°40' W 122°13'0 0.0
2016-Jun-21 10:33N 47°40' W 122°13'0 0.0
2016-Jun-21 09:31N 47°40' W 122°13'0 0.0
2016-Jun-21 08:32N 47°40' W 122°13'0 0.0
2016-Jun-21 07:32N 47°40' W 122°13'0 0.0
2016-Jun-21 04:26N 47°40' W 122°13'0 0.0
2016-Jun-21 03:32N 47°40' W 122°13'0 0.0
2016-Jun-21 02:24N 47°40' W 122°13'0 0.0
2016-Jun-21 01:33N 47°40' W 122°13'0 0.0
2016-Jun-21 00:31N 47°40' W 122°13'0 0.0
2016-Jun-20 23:32N 47°40' W 122°13'0 0.0
2016-Jun-20 22:27N 47°40' W 122°13'0 0.0
2016-Jun-20 21:33N 47°40' W 122°13'0 0.0
2016-Jun-20 20:31N 47°40' W 122°13'4 4.1
2016-Jun-20 19:34N 47°37' W 122°15'4 3.7
2016-Jun-20 18:29N 47°40' W 122°13'0 0.0
2016-Jun-20 17:33N 47°40' W 122°13'0 0.0
2016-Jun-20 16:33N 47°40' W 122°13'0 0.0
2016-Jun-20 15:31N 47°40' W 122°13'0 0.0
2016-Jun-20 14:29N 47°40' W 122°13'0 0.0
2016-Jun-20 13:29N 47°40' W 122°13'0 0.0
2016-Jun-20 12:33N 47°40' W 122°13'0 0.0
2016-Jun-20 11:31N 47°40' W 122°13'0 0.0
2016-Jun-20 10:31N 47°40' W 122°13'0 0.0
2016-Jun-20 09:32N 47°40' W 122°13'0 0.0
2016-Jun-20 08:33N 47°40' W 122°13'0 0.0
2016-Jun-20 07:33N 47°40' W 122°13'0 0.0
2016-Jun-20 06:31N 47°40' W 122°13'0 0.0
2016-Jun-20 05:32N 47°40' W 122°13'0 0.0
2016-Jun-20 04:29N 47°40' W 122°13'0 0.0
2016-Jun-20 03:33N 47°40' W 122°13'0 0.0
2016-Jun-20 02:25N 47°40' W 122°13'0 0.0
2016-Jun-20 01:31N 47°40' W 122°13'0 0.0
2016-Jun-20 00:32N 47°40' W 122°13'0 0.0
2016-Jun-19 23:27N 47°40' W 122°13'0 0.0
2016-Jun-19 22:33N 47°40' W 122°13'3 3.4
2016-Jun-19 21:33N 47°37' W 122°15'3 3.2
2016-Jun-19 20:31N 47°40' W 122°13'3 3.5
2016-Jun-19 19:33N 47°37' W 122°15'3 3.3
2016-Jun-19 18:32N 47°40' W 122°13'0 0.0
2016-Jun-19 17:33N 47°40' W 122°13'0 0.0
2016-Jun-19 16:33N 47°40' W 122°13'0 0.0
2016-Jun-19 15:31N 47°40' W 122°13'0 0.0
2016-Jun-19 14:32N 47°40' W 122°13'0 0.0
2016-Jun-19 13:32N 47°40' W 122°13'0 0.0
2016-Jun-19 12:33N 47°40' W 122°13'0 0.0
2016-Jun-19 11:25N 47°40' W 122°13'0 0.0
2016-Jun-19 10:31N 47°40' W 122°13'0 0.0
2016-Jun-19 09:32N 47°40' W 122°13'0 0.0
2016-Jun-19 08:27N 47°40' W 122°13'0 0.0
2016-Jun-19 07:30N 47°40' W 122°13'0 0.0
2016-Jun-19 06:31N 47°40' W 122°13'0 0.0
2016-Jun-19 05:32N 47°40' W 122°13'0 0.1
2016-Jun-19 04:33N 47°40' W 122°12'0 0.1
2016-Jun-19 03:33N 47°40' W 122°13'2 2.3
2016-Jun-19 02:33N 47°39' W 122°15'4 4.1
2016-Jun-19 01:33N 47°39' W 122°21'5 5.1
2016-Jun-19 00:33N 47°41' W 122°14'1 1.4
2016-Jun-18 23:33N 47°40' W 122°13'0 0.0
2016-Jun-18 22:29N 47°40' W 122°13'0 0.0
2016-Jun-18 16:32N 47°40' W 122°13'0 0.0
2016-Jun-18 15:30N 47°40' W 122°13'0 0.0
2016-Jun-18 14:33N 47°40' W 122°13'0 0.0
2016-Jun-18 13:28N 47°40' W 122°13'0 0.0
2016-Jun-18 12:32N 47°40' W 122°13'0 0.0
2016-Jun-18 11:32N 47°40' W 122°13'0 0.0
2016-Jun-18 10:30N 47°40' W 122°13'0 0.0
2016-Jun-18 09:31N 47°40' W 122°13'0 0.0
2016-Jun-18 08:25N 47°40' W 122°13'0 0.0
2016-Jun-18 07:23N 47°40' W 122°13'0 0.0
2016-Jun-18 06:33N 47°40' W 122°13'0 0.0
2016-Jun-18 05:33N 47°40' W 122°13'0 0.0
2016-Jun-18 04:28N 47°40' W 122°13'0 0.0
2016-Jun-18 03:26N 47°40' W 122°13'0 0.0
2016-Jun-18 02:29N 47°40' W 122°13'0 0.0
2016-Jun-18 01:33N 47°40' W 122°13'0 0.0
2016-Jun-18 00:33N 47°40' W 122°13'4 4.3
2016-Jun-17 23:31N 47°39' W 122°19'1 1.1
2016-Jun-17 22:33N 47°39' W 122°17'3 3.5
2016-Jun-17 21:33N 47°40' W 122°13'0 0.0
2016-Jun-17 20:33N 47°40' W 122°13'3 3.4
2016-Jun-17 19:32N 47°37' W 122°15'3 3.4
2016-Jun-17 18:31N 47°40' W 122°13'0 0.0
2016-Jun-17 17:31N 47°40' W 122°13'0 0.0
2016-Jun-17 16:32N 47°40' W 122°13'0 0.0
2016-Jun-17 15:33N 47°40' W 122°13'0 0.0
2016-Jun-17 14:33N 47°40' W 122°13'0 0.0
2016-Jun-17 13:28N 47°40' W 122°13'0 0.0
2016-Jun-17 12:29N 47°40' W 122°13'0 0.0
2016-Jun-17 11:32N 47°40' W 122°13'0 0.0
2016-Jun-17 10:27N 47°40' W 122°13'0 0.0
2016-Jun-17 09:28N 47°40' W 122°13'0 0.0
2016-Jun-17 08:32N 47°40' W 122°13'0 0.0
2016-Jun-17 07:32N 47°40' W 122°13'0 0.0
2016-Jun-17 06:33N 47°40' W 122°13'5 5.3
2016-Jun-17 05:33N 47°39' W 122°20'1 0.9
2016-Jun-17 04:32N 47°38' W 122°20'3 3.2
2016-Jun-17 03:33N 47°37' W 122°16'2 2.0
2016-Jun-17 02:30N 47°39' W 122°17'2 2.2
2016-Jun-17 01:22N 47°38' W 122°20'0 0.0
2016-Jun-17 00:26N 47°38' W 122°20'0 0.0
2016-Jun-16 23:33N 47°38' W 122°20'5 5.3
2016-Jun-16 22:33N 47°40' W 122°13'1 0.6
2016-Jun-16 21:31N 47°40' W 122°13'0 0.0
2016-Jun-16 20:31N 47°40' W 122°13'0 0.0
2016-Jun-16 19:31N 47°40' W 122°13'0 0.0
2016-Jun-16 18:29N 47°40' W 122°13'0 0.0
2016-Jun-16 17:29N 47°40' W 122°13'0 0.0
2016-Jun-16 16:33N 47°40' W 122°13'0 0.0
2016-Jun-16 15:31N 47°40' W 122°13'0 0.0
2016-Jun-16 14:28N 47°40' W 122°13'0 0.0
2016-Jun-16 13:32N 47°40' W 122°13'0 0.0
2016-Jun-16 12:30N 47°40' W 122°13'0 0.0
2016-Jun-16 11:33N 47°40' W 122°13'0 0.0
2016-Jun-16 10:31N 47°40' W 122°13'0 0.0
2016-Jun-16 09:32N 47°40' W 122°13'0 0.0
2016-Jun-16 08:32N 47°40' W 122°13'0 0.0
2016-Jun-16 07:27N 47°40' W 122°13'0 0.0
2016-Jun-16 06:31N 47°40' W 122°13'0 0.0
2016-Jun-16 05:31N 47°40' W 122°13'0 0.0
2016-Jun-16 04:32N 47°40' W 122°13'0 0.0
2016-Jun-16 03:27N 47°40' W 122°13'0 0.0
2016-Jun-16 02:30N 47°40' W 122°13'0 0.0
2016-Jun-16 01:10N 47°40' W 122°13'0 0.7
2016-Jun-16 00:33N 47°40' W 122°13'0 0.4
2016-Jun-15 23:33N 47°40' W 122°13'2 2.4
2016-Jun-15 22:33N 47°38' W 122°15'2 2.4
2016-Jun-15 21:33N 47°40' W 122°13'0 0.0
2016-Jun-15 20:33N 47°40' W 122°13'1 1.3
2016-Jun-15 19:33N 47°40' W 122°14'4 3.9
2016-Jun-15 18:33N 47°43' W 122°16'4 3.7
2016-Jun-15 17:33N 47°40' W 122°13'0 0.0
2016-Jun-15 16:33N 47°40' W 122°13'0 0.0
2016-Jun-15 15:31N 47°40' W 122°13'0 0.0
2016-Jun-15 14:32N 47°40' W 122°13'0 0.0
2016-Jun-15 13:32N 47°40' W 122°13'0 0.0
2016-Jun-15 12:33N 47°40' W 122°13'  

Dump ship's entire track history